»·PEaware :: N550XQ KTEX-KAPA

N550XQ :: KTEX-KAPA

FLIGHT INFORMATION

Flight Status: Arrived
Operator: Privately registered:
United States
More flights under this callsign
Pilot: Sanjiv S. (4490)
Aircraft: PIPER PA-30 TWIN COMANCHE
(PA30)
More flights by this aircraft type
Origin: KTEX Telluride Regl
United States
Destination: KAPA Centennial
United States
More flights between these airports :: More routes between these airports
Route: ETL V68 MTJ V244 HBU LARKS8
File this flight plan on PilotEdge
Remarks:
Altitude:
(Current/Filed)
17,000ft
Speed:
(Current/Filed)
140kts
Departed: 31-Mar-18 09:20 PM
Arrived: 31-Mar-18 11:11 PM
Distance/Time
Traveled:
173nm/1:51
Distance/Time
To Go:
Arrived

Flight Plot

Page will automatically refresh every two minutes.

Flight plan parsing failed; only flown route is shown


Map Options




Map Legend


Flown Route
Filed Route
Departure Airport
Arrival Airport
Navaid (VOR, NDB)
Fix

Horizontal Profiles

Position Reports

Time Latitude Longitude Heading Altitude Ground
Speed
31-Mar-18 20:47 37.954120 -107.902912 285 9077ft 0kts
31-Mar-18 20:48 37.954120 -107.902912 285 9077ft 0kts
31-Mar-18 20:49 37.954120 -107.902912 285 9077ft 0kts
31-Mar-18 20:50 37.954120 -107.902912 285 9077ft 0kts
31-Mar-18 20:51 37.954120 -107.902912 285 9077ft 0kts
31-Mar-18 20:52 37.954120 -107.902912 285 9077ft 0kts
31-Mar-18 20:53 37.954120 -107.902912 285 9077ft 0kts
31-Mar-18 20:54 37.954120 -107.902912 285 9077ft 0kts
31-Mar-18 20:55 37.954120 -107.902912 285 9077ft 0kts
31-Mar-18 20:56 37.954120 -107.902912 285 9077ft 0kts
31-Mar-18 20:57 37.954120 -107.902912 285 9077ft 0kts
31-Mar-18 20:58 37.954120 -107.902912 285 9077ft 0kts
31-Mar-18 20:59 37.954120 -107.902912 285 9077ft 0kts
31-Mar-18 21:00 37.954120 -107.902912 285 9077ft 0kts
31-Mar-18 21:01 37.954120 -107.902912 285 9077ft 0kts
31-Mar-18 21:02 37.954120 -107.902912 285 9077ft 0kts
31-Mar-18 21:03 37.954103 -107.903067 223 9077ft 2kts
31-Mar-18 21:04 37.953073 -107.899818 104 9077ft 13kts
31-Mar-18 21:05 37.952290 -107.896710 160 9077ft 0kts
31-Mar-18 21:06 37.952290 -107.896710 160 9077ft 0kts
31-Mar-18 21:07 37.952290 -107.896710 160 9077ft 0kts
31-Mar-18 21:08 37.952290 -107.896710 160 9077ft 0kts
31-Mar-18 21:09 37.952290 -107.896710 160 9077ft 0kts
31-Mar-18 21:10 37.952290 -107.896710 160 9077ft 0kts
31-Mar-18 21:11 37.952290 -107.896710 160 9077ft 0kts
31-Mar-18 21:12 37.952290 -107.896710 160 9077ft 0kts
31-Mar-18 21:13 37.952290 -107.896710 160 9077ft 0kts
31-Mar-18 21:14 37.952290 -107.896710 160 9077ft 0kts
31-Mar-18 21:15 37.952290 -107.896710 160 9077ft 0kts
31-Mar-18 21:16 37.952290 -107.896710 160 9077ft 0kts
31-Mar-18 21:17 37.952290 -107.896710 160 9077ft 0kts
31-Mar-18 21:18 37.951653 -107.898654 284 9077ft 39kts
31-Mar-18 21:19 37.957390 -107.928905 279 9369ft 108kts
31-Mar-18 21:20 37.966551 -107.964959 279 10182ft 108kts
31-Mar-18 21:21 37.975500 -108.002320 266 10790ft 110kts
31-Mar-18 21:22 37.984497 -108.042264 282 11166ft 120kts
31-Mar-18 21:23 37.995096 -108.082573 281 11599ft 120kts
31-Mar-18 21:24 38.005561 -108.122691 279 12070ft 119kts
31-Mar-18 21:25 38.015817 -108.162152 279 12510ft 116kts
31-Mar-18 21:26 38.025726 -108.200522 278 12895ft 114kts
31-Mar-18 21:27 38.048332 -108.226875 354 13248ft 143kts
31-Mar-18 21:28 38.087674 -108.220400 23 13588ft 150kts
31-Mar-18 21:29 38.120118 -108.196803 26 13878ft 153kts
31-Mar-18 21:30 38.157021 -108.169190 26 14269ft 151kts
31-Mar-18 21:31 38.192567 -108.142323 26 14720ft 148kts
31-Mar-18 21:32 38.228035 -108.115423 25 15124ft 149kts
31-Mar-18 21:33 38.263675 -108.088325 25 15509ft 150kts
31-Mar-18 21:34 38.299840 -108.061320 26 15881ft 151kts
31-Mar-18 21:35 38.335442 -108.033128 25 16239ft 151kts
31-Mar-18 21:36 38.370679 -108.005494 25 16474ft 158kts
31-Mar-18 21:37 38.408370 -107.975948 25 16738ft 159kts
31-Mar-18 21:38 38.447276 -107.945518 25 16850ft 173kts
31-Mar-18 21:39 38.490062 -107.911699 34 16844ft 188kts
31-Mar-18 21:40 38.505411 -107.850118 91 16846ft 188kts
31-Mar-18 21:41 38.500977 -107.784753 103 16846ft 185kts
31-Mar-18 21:42 38.496786 -107.718990 102 16847ft 186kts
31-Mar-18 21:43 38.492982 -107.652979 102 16847ft 187kts
31-Mar-18 21:44 38.489254 -107.586575 101 16847ft 187kts
31-Mar-18 21:45 38.484478 -107.520790 105 16848ft 186kts
31-Mar-18 21:46 38.479197 -107.455046 103 16865ft 186kts
31-Mar-18 21:47 38.474730 -107.389091 102 16886ft 187kts
31-Mar-18 21:48 38.470861 -107.330035 103 16897ft 182kts
31-Mar-18 21:49 38.466590 -107.266716 103 16915ft 177kts
31-Mar-18 21:50 38.462533 -107.204491 103 16917ft 177kts
31-Mar-18 21:51 38.458489 -107.141948 103 16917ft 177kts
31-Mar-18 21:52 38.454424 -107.079220 103 16917ft 177kts
31-Mar-18 21:53 38.459397 -107.017293 60 16919ft 186kts
31-Mar-18 21:54 38.484880 -106.959644 70 16919ft 187kts
31-Mar-18 21:55 38.503493 -106.897598 65 16920ft 189kts
31-Mar-18 21:56 38.520959 -106.845133 62 16920ft 190kts
31-Mar-18 21:57 38.542224 -106.783528 60 16919ft 189kts
31-Mar-18 21:58 38.563566 -106.722481 60 16920ft 188kts
31-Mar-18 21:59 38.584937 -106.661408 60 16920ft 188kts
31-Mar-18 22:00 38.606283 -106.600250 60 16921ft 188kts
31-Mar-18 22:01 38.627643 -106.538965 60 16922ft 188kts
31-Mar-18 22:02 38.649004 -106.477539 60 16925ft 188kts
31-Mar-18 22:03 38.670029 -106.416845 60 17010ft 185kts
31-Mar-18 22:04 38.691101 -106.355922 61 17006ft 188kts
31-Mar-18 22:05 38.710917 -106.297424 61 16986ft 188kts
31-Mar-18 22:06 38.731223 -106.235632 64 16980ft 188kts
31-Mar-18 22:07 38.748667 -106.172222 68 16981ft 189kts
31-Mar-18 22:08 38.765047 -106.108358 60 16981ft 187kts
31-Mar-18 22:09 38.791470 -106.051735 47 16986ft 183kts
31-Mar-18 22:10 38.821892 -105.999730 44 16992ft 182kts
31-Mar-18 22:11 38.853701 -105.948840 43 16991ft 182kts
31-Mar-18 22:12 38.885771 -105.898520 42 16983ft 183kts
31-Mar-18 22:13 38.918068 -105.848096 42 16983ft 183kts
31-Mar-18 22:14 38.950600 -105.797326 43 16984ft 184kts
31-Mar-18 22:15 38.983197 -105.746400 43 16984ft 185kts
31-Mar-18 22:16 39.015781 -105.695417 43 16985ft 185kts
31-Mar-18 22:17 39.048790 -105.643686 43 16985ft 186kts
31-Mar-18 22:18 39.081672 -105.592064 44 16986ft 187kts
31-Mar-18 22:19 39.111702 -105.545176 43 16996ft 186kts
31-Mar-18 22:20 39.144772 -105.493715 43 17008ft 186kts
31-Mar-18 22:21 39.177645 -105.442046 43 17020ft 186kts
31-Mar-18 22:22 39.210515 -105.390103 44 17034ft 187kts
31-Mar-18 22:23 39.238632 -105.345543 45 17043ft 187kts
31-Mar-18 22:24 39.270741 -105.293535 44 17046ft 186kts
31-Mar-18 22:25 39.303352 -105.241530 44 17052ft 185kts
31-Mar-18 22:26 39.335612 -105.190167 44 17058ft 185kts
31-Mar-18 22:27 39.367980 -105.138590 44 17063ft 186kts
31-Mar-18 22:28 39.400308 -105.087031 44 17063ft 187kts
31-Mar-18 22:29 39.433164 -105.034580 45 17064ft 191kts
31-Mar-18 22:30 39.466873 -104.980666 46 17065ft 195kts
31-Mar-18 22:31 39.501087 -104.925848 48 17065ft 200kts
31-Mar-18 22:32 39.536327 -104.869263 49 17067ft 205kts
31-Mar-18 22:33 39.571831 -104.812041 49 17074ft 207kts
31-Mar-18 22:34 39.607956 -104.753780 49 17081ft 208kts
31-Mar-18 22:35 39.644166 -104.695298 49 17088ft 208kts
31-Mar-18 22:36 39.680323 -104.636783 49 17096ft 209kts
31-Mar-18 22:37 39.716764 -104.577685 49 17097ft 209kts
31-Mar-18 22:38 39.753113 -104.518660 49 17098ft 210kts
31-Mar-18 22:39 39.789428 -104.459527 49 17099ft 210kts
31-Mar-18 22:40 39.825933 -104.399956 49 17100ft 210kts
31-Mar-18 22:41 39.861124 -104.342350 51 17095ft 210kts
31-Mar-18 22:42 39.896944 -104.282602 50 17092ft 209kts
31-Mar-18 22:43 39.931532 -104.225604 47 17073ft 204kts
31-Mar-18 22:44 39.967677 -104.173531 14 17073ft 190kts
31-Mar-18 22:45 40.002275 -104.187969 269 17074ft 115kts
31-Mar-18 22:46 39.989271 -104.223372 234 17073ft 112kts
31-Mar-18 22:47 39.967687 -104.252924 232 17074ft 112kts
31-Mar-18 22:48 39.945980 -104.282188 232 17073ft 112kts
31-Mar-18 22:49 39.924067 -104.311547 232 17073ft 112kts
31-Mar-18 22:50 39.902225 -104.340714 232 17072ft 112kts
31-Mar-18 22:51 39.880380 -104.369840 232 16917ft 123kts
31-Mar-18 22:52 39.852619 -104.406980 230 15841ft 153kts
31-Mar-18 22:53 39.822511 -104.446956 229 14920ft 155kts
31-Mar-18 22:54 39.793161 -104.485887 229 14039ft 156kts
31-Mar-18 22:55 39.762769 -104.526181 228 13151ft 158kts
31-Mar-18 22:56 39.731923 -104.567001 228 12277ft 160kts
31-Mar-18 22:57 39.700796 -104.608173 226 11422ft 161kts
31-Mar-18 22:58 39.664034 -104.640501 212 10578ft 162kts
31-Mar-18 22:59 39.632925 -104.664439 209 9797ft 140kts
31-Mar-18 23:00 39.601072 -104.688401 207 8998ft 125kts
31-Mar-18 23:01 39.567994 -104.693964 172 9001ft 129kts
31-Mar-18 23:02 39.535849 -104.713822 209 9002ft 139kts
31-Mar-18 23:03 39.503775 -104.743750 210 8996ft 146kts
31-Mar-18 23:04 39.469497 -104.770952 208 8992ft 147kts
31-Mar-18 23:05 39.433758 -104.796941 204 7652ft 108kts
31-Mar-18 23:06 39.431848 -104.822875 307 7797ft 106kts
31-Mar-18 23:07 39.464268 -104.849993 357 7802ft 168kts
31-Mar-18 23:08 39.512079 -104.848525 2 7328ft 158kts
31-Mar-18 23:09 39.553138 -104.850160 356 6634ft 125kts
31-Mar-18 23:10 39.573993 -104.848746 91 5825ft 9kts
31-Mar-18 23:11 39.574281 -104.847885 353 5825ft 0kts

Navigation Log

Ident Type
Flight plan parsing failed, navigation log unavailable